Clearwater, Florida
Current Conditions -  °F | °C
As of 2:35 PM on Thursday 27 Nov 2014 (Local Time) from KCLW Reporting Station
Clear Clear  
Wind Chill: 61°   Ceiling: Unl
Heat Index: 61°   Visibility: 10mi
Dew Point: 45°   Wind: 15mph
Humidity: 55%   Direction: 350°N
Pressure: 30.23"   Gusts: 23mph
Location:  27.97°N, 82.8°W
Report Text: KCLW 271935Z AUTO 35013G20KT 10SM CLR 16/07 A3023 RMK AO2
Loading
Personal Weather Stations






























Interactive Weather Map New forecast layout! Learn more

10-Day Weather Forecast

Advertisements
Track Severe Weather on mobile